createdAt,value
2023-01-28T00:00:35.507Z,100877.63
2023-01-28T00:03:24.095Z,100889.06
2023-01-28T00:06:14.686Z,100888.22
2023-01-28T00:09:03.177Z,100895.09
2023-01-28T00:11:51.647Z,100898.34
2023-01-28T00:14:41.504Z,100894.84
2023-01-28T00:17:30.085Z,100894.53
2023-01-28T00:20:18.670Z,100891.47
2023-01-28T00:23:07.324Z,100890.94
2023-01-28T00:25:55.906Z,100894.13
2023-01-28T00:28:45.189Z,100894.44
2023-01-28T00:31:35.411Z,100880.88
2023-01-28T00:34:24.033Z,100887.16
2023-01-28T00:37:12.516Z,100890.66
2023-01-28T00:40:00.992Z,100888.69
2023-01-28T00:42:49.415Z,100892.84
2023-01-28T00:45:39.060Z,100880.47
2023-01-28T00:48:28.954Z,100884.50
2023-01-28T00:51:20.107Z,100881.28
2023-01-28T00:54:08.903Z,100886.88
2023-01-28T00:56:57.375Z,100876.69
2023-01-28T00:59:45.806Z,100873.31
2023-01-28T01:02:34.374Z,100890.75
2023-01-28T01:05:24.244Z,100884.22
2023-01-28T01:08:12.709Z,100878.22
2023-01-28T01:11:01.269Z,100883.66
2023-01-28T01:13:54.906Z,100888.81
2023-01-28T01:16:43.721Z,100890.59
2023-01-28T01:19:32.361Z,100885.72
2023-01-28T01:22:22.206Z,100891.84
2023-01-28T01:25:11.679Z,100899.22
2023-01-28T01:28:00.128Z,100890.59
2023-01-28T01:30:49.036Z,100785.97
2023-01-28T01:33:37.526Z,100887.22
2023-01-28T01:36:26.090Z,100887.50
2023-01-28T01:39:15.920Z,100890.41
2023-01-28T01:42:04.798Z,100846.97
2023-01-28T01:45:03.348Z,100884.13
2023-01-28T01:47:57.268Z,100880.94
2023-01-28T01:50:49.727Z,100880.66
2023-01-28T01:53:39.000Z,100873.84
2023-01-28T01:56:31.382Z,100876.50
2023-01-28T01:59:24.607Z,100888.75
2023-01-28T02:02:13.641Z,100879.25
2023-01-28T02:05:02.361Z,100885.38
2023-01-28T02:07:54.916Z,100881.19
2023-01-28T02:10:43.452Z,100876.31
2023-01-28T02:13:36.967Z,100891.19
2023-01-28T02:16:26.135Z,100875.31
2023-01-28T02:19:14.855Z,100881.47
2023-01-28T02:22:11.675Z,100879.66
2023-01-28T02:25:17.511Z,100882.44
2023-01-28T02:28:15.768Z,100837.03
2023-01-28T02:31:10.921Z,100880.06
2023-01-28T02:34:04.042Z,100895.09
2023-01-28T02:36:55.228Z,100892.56
2023-01-28T02:39:48.132Z,100784.94
2023-01-28T02:42:38.866Z,100891.72
2023-01-28T02:45:52.973Z,100886.56
2023-01-28T02:48:40.561Z,100892.84
2023-01-28T02:51:35.197Z,100889.22
2023-01-28T02:54:33.504Z,100897.28
2023-01-28T02:57:31.832Z,100899.25
2023-01-28T03:00:24.522Z,100902.16
2023-01-28T03:03:18.379Z,100901.03
2023-01-28T03:06:09.836Z,100905.66
2023-01-28T03:09:17.921Z,100896.72
2023-01-28T03:12:25.699Z,100903.69
2023-01-28T03:15:33.804Z,100910.38
2023-01-28T03:18:44.070Z,100898.84
2023-01-28T03:21:51.358Z,100894.50
2023-01-28T03:25:03.052Z,100900.66
2023-01-28T03:28:13.095Z,100890.41
2023-01-28T03:31:21.855Z,100888.47
2023-01-28T03:34:29.981Z,100899.50
2023-01-28T03:37:18.512Z,100897.56
2023-01-28T03:40:08.384Z,100905.38
2023-01-28T03:42:57.132Z,100904.53
2023-01-28T03:45:46.227Z,100902.03
2023-01-28T03:48:34.935Z,100906.19
2023-01-28T03:51:24.719Z,100904.41
2023-01-28T03:54:13.638Z,100903.16
2023-01-28T03:57:02.453Z,100902.31
2023-01-28T03:59:52.599Z,100918.78
2023-01-28T04:02:41.083Z,100914.34
2023-01-28T04:05:29.630Z,100910.84
2023-01-28T04:08:19.424Z,100914.59
2023-01-28T04:11:16.521Z,100914.72
2023-01-28T04:14:05.229Z,100923.50
2023-01-28T04:16:54.925Z,100915.53
2023-01-28T04:19:43.442Z,100931.28
2023-01-28T04:22:31.837Z,100932.88
2023-01-28T04:25:21.673Z,100924.78
2023-01-28T04:28:10.145Z,100940.81
2023-01-28T04:30:58.688Z,100936.34
2023-01-28T04:33:47.255Z,100933.56
2023-01-28T04:36:35.700Z,100930.78
2023-01-28T04:39:24.170Z,100926.47
2023-01-28T04:42:13.968Z,100939.16
2023-01-28T04:45:02.456Z,100936.66
2023-01-28T04:47:51.323Z,100933.41
2023-01-28T04:50:39.860Z,100943.63
2023-01-28T04:53:28.393Z,100936.41
2023-01-28T04:56:16.833Z,100940.16
2023-01-28T04:59:06.674Z,100935.66
2023-01-28T05:01:55.187Z,100945.09
2023-01-28T05:04:43.708Z,100950.97
2023-01-28T05:07:32.143Z,100952.31
2023-01-28T05:10:20.721Z,100945.22
2023-01-28T05:13:09.296Z,100948.97
2023-01-28T05:15:59.078Z,100948.78
2023-01-28T05:18:48.208Z,100954.47
2023-01-28T05:21:36.673Z,100927.38
2023-01-28T05:24:25.148Z,100934.75
2023-01-28T05:27:13.664Z,100953.44
2023-01-28T05:30:02.162Z,100950.81
2023-01-28T05:32:56.062Z,100956.75
2023-01-28T05:35:44.570Z,100962.03
2023-01-28T05:38:33.074Z,100955.06
2023-01-28T05:41:21.491Z,100956.44
2023-01-28T05:44:10.003Z,100951.72
2023-01-28T05:46:58.480Z,100962.56
2023-01-28T05:49:48.364Z,100963.16
2023-01-28T05:52:36.812Z,100969.72
2023-01-28T05:55:26.625Z,100973.22
2023-01-28T05:58:15.119Z,100964.16
2023-01-28T06:01:03.647Z,100972.25
2023-01-28T06:03:52.125Z,100981.19
2023-01-28T06:06:41.954Z,100988.31
2023-01-28T06:09:30.456Z,100990.13
2023-01-28T06:12:18.980Z,100994.00
2023-01-28T06:15:08.591Z,100990.06
2023-01-28T06:17:57.075Z,101006.50
2023-01-28T06:20:45.585Z,100980.13
2023-01-28T06:23:35.419Z,100997.28
2023-01-28T06:26:24.318Z,101011.09
2023-01-28T06:29:12.762Z,101010.28
2023-01-28T06:32:01.249Z,101014.84
2023-01-28T06:34:49.913Z,101015.19
2023-01-28T06:37:39.653Z,101018.06
2023-01-28T06:40:29.506Z,101018.34
2023-01-28T06:43:18.186Z,101024.28
2023-01-28T06:46:07.142Z,101023.56
2023-01-28T06:48:55.714Z,101033.50
2023-01-28T06:51:44.306Z,101024.00
2023-01-28T06:54:32.776Z,101031.97
2023-01-28T06:57:22.583Z,101034.09
2023-01-28T07:00:13.537Z,101037.69
2023-01-28T07:03:02.307Z,101037.56
2023-01-28T07:05:50.948Z,101040.31
2023-01-28T07:08:39.890Z,101043.13
2023-01-28T07:11:28.363Z,101034.34
2023-01-28T07:14:18.179Z,101050.91
2023-01-28T07:17:06.753Z,101048.34
2023-01-28T07:19:55.274Z,101055.66
2023-01-28T07:22:44.584Z,101055.13
2023-01-28T07:25:33.078Z,101059.19
2023-01-28T07:28:22.166Z,101052.78
2023-01-28T07:31:12.074Z,101055.53
2023-01-28T07:34:00.620Z,101056.28
2023-01-28T07:36:49.075Z,101058.59
2023-01-28T07:39:37.529Z,101063.78
2023-01-28T07:42:26.025Z,101062.31
2023-01-28T07:45:14.800Z,101064.63
2023-01-28T07:48:06.656Z,101069.41
2023-01-28T07:50:55.216Z,101069.16
2023-01-28T07:53:43.696Z,101070.94
2023-01-28T07:56:32.336Z,101077.50
2023-01-28T07:59:20.785Z,101080.97
2023-01-28T08:02:12.422Z,101084.03
2023-01-28T08:05:02.350Z,101085.16
2023-01-28T08:07:50.889Z,101093.75
2023-01-28T08:10:40.055Z,101081.78
2023-01-28T08:13:29.012Z,101083.63
2023-01-28T08:16:17.573Z,101093.94
2023-01-28T08:19:06.101Z,101096.88
2023-01-28T08:21:55.945Z,101103.88
2023-01-28T08:24:44.470Z,101100.16
2023-01-28T08:27:33.391Z,101100.53
2023-01-28T08:30:22.119Z,101094.63
2023-01-28T08:33:12.190Z,101102.06
2023-01-28T08:36:03.986Z,101105.50
2023-01-28T08:38:55.140Z,101107.47
2023-01-28T08:41:43.647Z,101105.44
2023-01-28T08:44:32.127Z,101109.56
2023-01-28T08:47:20.666Z,101101.28
2023-01-28T08:50:10.711Z,101112.75
2023-01-28T08:53:00.778Z,101084.75
2023-01-28T08:55:50.640Z,101114.44
2023-01-28T08:58:39.276Z,101116.00
2023-01-28T09:01:29.420Z,101115.69
2023-01-28T09:04:18.076Z,101108.75
2023-01-28T09:07:06.520Z,101117.06
2023-01-28T09:09:55.040Z,101113.25
2023-01-28T09:12:45.223Z,101116.44
2023-01-28T09:15:34.085Z,101126.22
2023-01-28T09:18:22.910Z,101119.94
2023-01-28T09:21:11.562Z,101122.72
2023-01-28T09:24:00.163Z,101126.09
2023-01-28T09:26:49.645Z,101122.13
2023-01-28T09:29:39.473Z,101138.34
2023-01-28T09:32:28.164Z,101133.22
2023-01-28T09:35:17.860Z,101135.19
2023-01-28T09:38:06.348Z,101142.00
2023-01-28T09:40:56.087Z,101114.56
2023-01-28T09:44:07.075Z,101152.75
2023-01-28T09:47:02.829Z,101147.91
2023-01-28T09:49:53.650Z,101143.56
2023-01-28T09:52:42.454Z,101157.28
2023-01-28T09:55:33.618Z,101152.81
2023-01-28T09:58:22.203Z,101156.56
2023-01-28T10:01:27.217Z,101157.16
2023-01-28T10:04:26.000Z,101163.03
2023-01-28T10:07:28.844Z,101150.03
2023-01-28T10:10:19.391Z,101145.41
2023-01-28T10:13:19.655Z,101148.34
2023-01-28T10:16:21.567Z,101153.25
2023-01-28T10:19:16.958Z,101152.69
2023-01-28T10:22:08.860Z,101131.25
2023-01-28T10:25:01.853Z,101144.00
2023-01-28T10:27:51.924Z,101147.31
2023-01-28T10:30:41.940Z,101140.91
2023-01-28T10:33:32.868Z,101140.66
2023-01-28T10:36:21.357Z,101136.38
2023-01-28T10:39:12.441Z,101136.94
2023-01-28T10:42:00.956Z,101141.09
2023-01-28T10:44:50.748Z,101127.59
2023-01-28T10:47:40.983Z,101123.69
2023-01-28T10:50:31.404Z,101155.16
2023-01-28T10:53:19.964Z,101141.47
2023-01-28T10:56:11.572Z,101146.34
2023-01-28T10:59:02.572Z,101160.91
2023-01-28T11:01:53.721Z,101160.50
2023-01-28T11:04:42.309Z,101158.94
2023-01-28T11:07:30.848Z,101152.38
2023-01-28T11:10:32.227Z,101098.31
2023-01-28T11:13:25.002Z,101163.06
2023-01-28T11:16:17.511Z,101152.03
2023-01-28T11:19:06.524Z,101157.88
2023-01-28T11:21:56.844Z,101155.84
2023-01-28T11:24:45.404Z,101153.84
2023-01-28T11:27:34.389Z,101153.56
2023-01-28T11:30:26.193Z,101152.19
2023-01-28T11:33:19.020Z,101146.53
2023-01-28T11:36:13.074Z,101146.88
2023-01-28T11:39:05.366Z,101158.75
2023-01-28T11:41:54.312Z,101161.25
2023-01-28T11:44:42.981Z,101156.38
2023-01-28T11:47:25.111Z,101168.94
2023-01-28T11:50:03.140Z,101162.19
2023-01-28T11:53:04.411Z,101159.81
2023-01-28T11:55:38.776Z,101170.16
2023-01-28T11:58:18.481Z,101142.56
2023-01-28T12:00:51.143Z,101168.09
2023-01-28T12:03:36.123Z,101168.09
2023-01-28T12:06:18.882Z,101163.53
2023-01-28T12:08:52.433Z,101164.25
2023-01-28T12:11:47.807Z,101159.69
2023-01-28T12:14:25.139Z,101156.91
2023-01-28T12:17:20.367Z,101165.72
2023-01-28T12:20:17.656Z,101143.19
2023-01-28T12:23:21.646Z,101151.72
2023-01-28T12:26:12.727Z,101153.16
2023-01-28T12:29:08.400Z,101135.28
2023-01-28T12:32:18.988Z,101148.84
2023-01-28T12:35:32.610Z,101145.78
2023-01-28T12:38:26.734Z,101139.91
2023-01-28T12:41:16.442Z,101143.13
2023-01-28T12:44:07.680Z,101143.97
2023-01-28T12:46:58.708Z,101129.69
2023-01-28T12:49:50.747Z,101132.75
2023-01-28T12:52:44.231Z,101141.72
2023-01-28T12:55:40.658Z,101139.63
2023-01-28T12:58:38.390Z,101131.94
2023-01-28T13:01:30.332Z,101141.72
2023-01-28T13:04:26.686Z,101135.41
2023-01-28T13:07:18.151Z,101132.19
2023-01-28T13:10:15.004Z,101123.66
2023-01-28T13:13:04.162Z,101138.63
2023-01-28T13:15:52.628Z,101130.50
2023-01-28T13:18:46.244Z,101142.81
2023-01-28T13:21:47.490Z,101131.66
2023-01-28T13:24:37.606Z,101139.63
2023-01-28T13:27:29.096Z,101102.25
2023-01-28T13:30:26.830Z,101140.25
2023-01-28T13:33:29.293Z,101150.19
2023-01-28T13:36:25.893Z,101141.09
2023-01-28T13:39:19.846Z,101146.88
2023-01-28T13:42:23.406Z,101154.81
2023-01-28T13:45:24.689Z,101158.56
2023-01-28T13:48:24.606Z,101155.50
2023-01-28T13:51:20.829Z,101159.41
2023-01-28T13:54:15.553Z,101168.38
2023-01-28T13:57:17.446Z,101171.03
2023-01-28T14:00:09.672Z,101173.53
2023-01-28T14:03:39.854Z,101174.00
2023-01-28T14:07:09.962Z,101186.09
2023-01-28T14:10:29.991Z,101176.19
2023-01-28T14:13:34.854Z,101156.16
2023-01-28T14:16:35.897Z,101184.28
2023-01-28T14:19:28.233Z,101196.97
2023-01-28T14:22:20.122Z,101197.16
2023-01-28T14:25:14.303Z,101192.13
2023-01-28T14:28:04.493Z,101193.91
2023-01-28T14:30:56.205Z,101213.53
2023-01-28T14:33:44.833Z,101218.25
2023-01-28T14:36:38.014Z,101219.97
2023-01-28T14:39:29.112Z,101219.09
2023-01-28T14:42:22.063Z,101220.63
2023-01-28T14:45:20.182Z,101216.66
2023-01-28T14:48:21.649Z,101225.94
2023-01-28T14:51:22.521Z,101207.47
2023-01-28T14:54:23.502Z,101230.00
2023-01-28T14:57:25.245Z,101225.91
2023-01-28T15:00:19.636Z,101235.25
2023-01-28T15:03:24.763Z,101237.91
2023-01-28T15:06:15.722Z,101229.13
2023-01-28T15:09:08.952Z,101204.38
2023-01-28T15:11:58.488Z,101243.66
2023-01-28T15:14:49.061Z,101235.16
2023-01-28T15:17:37.806Z,101230.00
2023-01-28T15:20:26.392Z,101231.06
2023-01-28T15:26:14.753Z,101240.41
2023-01-28T15:29:03.360Z,101243.19
2023-01-28T15:31:53.680Z,101253.41
2023-01-28T15:34:47.182Z,101242.59
2023-01-28T15:37:35.697Z,101222.78
2023-01-28T15:40:25.914Z,101256.81
2023-01-28T15:43:22.232Z,101266.81
2023-01-28T15:46:12.508Z,101268.31
2023-01-28T15:49:04.127Z,101277.53
2023-01-28T15:51:52.669Z,101270.41
2023-01-28T15:54:41.920Z,101272.91
2023-01-28T15:57:32.007Z,101261.41
2023-01-28T16:00:21.753Z,101271.47
2023-01-28T16:03:11.182Z,101271.47
2023-01-28T16:06:03.113Z,101261.53
2023-01-28T16:08:55.378Z,101262.16
2023-01-28T16:11:45.514Z,101255.03
2023-01-28T16:14:40.366Z,101262.88
2023-01-28T16:17:32.309Z,101265.13
2023-01-28T16:20:23.880Z,101259.13
2023-01-28T16:23:24.420Z,101265.38
2023-01-28T16:26:22.580Z,101259.31
2023-01-28T16:29:14.732Z,101267.22
2023-01-28T16:32:04.126Z,101269.28
2023-01-28T16:34:52.678Z,101259.38
2023-01-28T16:37:42.387Z,101267.06
2023-01-28T16:40:32.483Z,101268.25
2023-01-28T16:43:20.984Z,101264.56
2023-01-28T16:46:13.375Z,101260.75
2023-01-28T16:49:02.916Z,101263.06
2023-01-28T16:51:51.496Z,101265.72
2023-01-28T16:54:45.386Z,101260.09
2023-01-28T16:57:36.857Z,101228.63
2023-01-28T17:00:27.400Z,101196.03
2023-01-28T17:03:16.115Z,101273.03
2023-01-28T17:06:04.907Z,101274.41
2023-01-28T17:08:53.352Z,101279.25
2023-01-28T17:11:41.998Z,101281.03
2023-01-28T17:14:31.919Z,101279.03
2023-01-28T17:17:20.378Z,101281.00
2023-01-28T17:20:10.454Z,101292.81
2023-01-28T17:22:59.041Z,101287.91
2023-01-28T17:25:47.528Z,101284.19
2023-01-28T17:28:36.311Z,101302.84
2023-01-28T17:31:27.394Z,101287.19
2023-01-28T17:34:16.004Z,101304.59
2023-01-28T17:37:04.527Z,101271.47
2023-01-28T17:39:53.031Z,101301.66
2023-01-28T17:42:41.521Z,101308.50
2023-01-28T17:45:31.483Z,101286.28
2023-01-28T17:48:21.339Z,101307.47
2023-01-28T17:51:10.044Z,101314.81
2023-01-28T17:53:58.564Z,101308.44
2023-01-28T17:56:47.294Z,101304.06
2023-01-28T17:59:35.978Z,101312.28
2023-01-28T18:02:24.484Z,101311.91
2023-01-28T18:05:15.114Z,101312.91
2023-01-28T18:08:04.754Z,101313.28
2023-01-28T18:10:55.128Z,101312.72
2023-01-28T18:13:44.116Z,101334.13
2023-01-28T18:16:32.578Z,101335.94
2023-01-28T18:19:21.291Z,101319.53
2023-01-28T18:22:13.737Z,101330.53
2023-01-28T18:25:02.372Z,101338.72
2023-01-28T18:27:52.149Z,101345.69
2023-01-28T18:30:41.041Z,101343.41
2023-01-28T18:33:33.978Z,101342.53
2023-01-28T18:36:22.596Z,101346.41
2023-01-28T18:39:13.696Z,101352.41
2023-01-28T18:42:02.237Z,101357.63
2023-01-28T18:44:50.917Z,101352.59
2023-01-28T18:47:39.374Z,101335.63
2023-01-28T18:50:28.059Z,101344.06
2023-01-28T18:53:16.720Z,101352.34
2023-01-28T18:56:07.913Z,101351.84
2023-01-28T18:58:57.655Z,101339.03
2023-01-28T19:01:47.841Z,101350.34
2023-01-28T19:04:36.514Z,101358.41
2023-01-28T19:07:25.348Z,101348.31
2023-01-28T19:10:13.991Z,101347.53
2023-01-28T19:13:03.918Z,101358.41
2023-01-28T19:15:53.052Z,101361.50
2023-01-28T19:18:41.672Z,101360.47
2023-01-28T19:21:31.639Z,101356.84
2023-01-28T19:24:20.209Z,101352.38
2023-01-28T19:27:08.919Z,101326.44
2023-01-28T19:29:58.787Z,101311.41
2023-01-28T19:32:49.020Z,101366.47
2023-01-28T19:35:37.998Z,101368.66
2023-01-28T19:38:26.831Z,101366.00
2023-01-28T19:41:17.004Z,101359.84
2023-01-28T19:44:05.875Z,101353.25
2023-01-28T19:46:55.772Z,101340.38
2023-01-28T19:49:44.355Z,101362.38
2023-01-28T19:52:33.101Z,101315.75
2023-01-28T19:55:21.845Z,101355.19
2023-01-28T19:58:11.613Z,101384.41
2023-01-28T20:01:05.265Z,101397.06
2023-01-28T20:03:58.676Z,101405.72
2023-01-28T20:06:47.240Z,101404.28
2023-01-28T20:09:35.773Z,101409.22
2023-01-28T20:12:26.989Z,101407.41
2023-01-28T20:15:15.800Z,101418.69
2023-01-28T20:18:05.045Z,101419.09
2023-01-28T20:20:55.652Z,101421.00
2023-01-28T20:23:44.184Z,101424.63
2023-01-28T20:26:37.414Z,101394.63
2023-01-28T20:29:25.992Z,101446.50
2023-01-28T20:32:19.119Z,101450.47
2023-01-28T20:35:10.073Z,101439.38
2023-01-28T20:38:04.077Z,101444.91
2023-01-28T20:40:52.660Z,101437.06
2023-01-28T20:43:42.652Z,101439.88
2023-01-28T20:46:32.954Z,101439.13
2023-01-28T20:49:21.481Z,101437.06
2023-01-28T20:52:10.218Z,101373.00
2023-01-28T20:55:01.602Z,101429.72
2023-01-28T20:57:50.115Z,101448.28
2023-01-28T21:00:38.910Z,101453.56
2023-01-28T21:03:27.854Z,101459.44
2023-01-28T21:06:16.640Z,101450.41
2023-01-28T21:09:06.261Z,101440.75
2023-01-28T21:11:56.149Z,101450.97
2023-01-28T21:14:44.676Z,101451.50
2023-01-28T21:17:33.381Z,101450.88
2023-01-28T21:20:21.915Z,101454.09
2023-01-28T21:23:14.697Z,101461.69
2023-01-28T21:26:04.922Z,101446.91
2023-01-28T21:28:56.126Z,101448.97
2023-01-28T21:31:44.756Z,101455.31
2023-01-28T21:34:33.390Z,101433.75
2023-01-28T21:37:22.633Z,101459.84
2023-01-28T21:40:13.414Z,101456.78
2023-01-28T21:43:02.186Z,101426.28
2023-01-28T21:45:57.111Z,101452.75
2023-01-28T21:48:45.696Z,101455.81
2023-01-28T21:51:39.205Z,101449.25
2023-01-28T21:54:28.072Z,101430.34
2023-01-28T21:57:16.750Z,101453.97
2023-01-28T22:00:06.589Z,101467.44
2023-01-28T22:02:56.519Z,101461.56
2023-01-28T22:05:45.080Z,101467.94
2023-01-28T22:08:33.575Z,101466.16
2023-01-28T22:11:22.217Z,101471.06
2023-01-28T22:14:11.401Z,101462.44
2023-01-28T22:17:00.241Z,101395.41
2023-01-28T22:19:50.205Z,101468.72
2023-01-28T22:22:38.772Z,101475.47
2023-01-28T22:25:27.471Z,101479.22
2023-01-28T22:28:16.129Z,101471.25
2023-01-28T22:31:09.076Z,101458.03
2023-01-28T22:33:57.768Z,101451.09
2023-01-28T22:36:48.268Z,101464.38
2023-01-28T22:39:36.886Z,101380.66
2023-01-28T22:42:25.691Z,101435.63
2023-01-28T22:45:14.377Z,101443.09
2023-01-28T22:48:02.872Z,101450.19
2023-01-28T22:50:51.414Z,101442.22
2023-01-28T22:53:41.624Z,101434.75
2023-01-28T22:56:32.079Z,101445.22
2023-01-28T22:59:20.601Z,101440.63
2023-01-28T23:02:09.121Z,101445.56
2023-01-28T23:04:57.584Z,101443.97
2023-01-28T23:07:46.222Z,101403.41
2023-01-28T23:10:36.093Z,101416.28
2023-01-28T23:13:25.759Z,101438.44
2023-01-28T23:16:31.832Z,101436.78
2023-01-28T23:19:37.981Z,101427.22
2023-01-28T23:22:46.216Z,101447.81
2023-01-28T23:25:36.019Z,101437.81
2023-01-28T23:28:24.556Z,101434.81
2023-01-28T23:31:13.143Z,101433.50
2023-01-28T23:34:01.776Z,101424.81
2023-01-28T23:36:50.525Z,101429.41
2023-01-28T23:39:39.013Z,101431.19
2023-01-28T23:42:28.914Z,101429.16
2023-01-28T23:45:17.767Z,101396.38
2023-01-28T23:48:06.285Z,101429.75
2023-01-28T23:50:55.623Z,101434.03
2023-01-28T23:53:44.088Z,101424.94
2023-01-28T23:56:32.567Z,101422.53
2023-01-28T23:59:22.606Z,101423.16
